Riegelwood, North Carolina
Current Conditions -  °F | °C
As of 8:53 PM on Friday 19 Dec 2014 (Local Time) from KILM Reporting Station
Clear Clear  
Wind Chill: 39°   Ceiling: Unl
Heat Index: 42°   Visibility: 10mi
Dew Point: 37°   Wind: 5mph
Humidity: 82%   Direction: 40°NE
Pressure: 30.19"   Gusts: NA
Location:  34.34°N, 78.23°W
Report Text: KILM 200153Z 04004KT 10SM CLR 06/03 A3019 RMK AO2 SLP223 T00560028
Loading
Personal Weather Stations






























Interactive Weather Map New forecast layout! Learn more

10-Day Weather Forecast

Advertisements
Track Severe Weather on mobile